sensor_id;sensor_type;location;lat;lon;timestamp;P1;durP1;ratioP1;P2;durP2;ratioP2
10845;SDS011;5476;51.540;7.186;2022-11-20T00:01:32;20.40;;;12.97;;
10845;SDS011;5476;51.540;7.186;2022-11-20T00:04:00;21.47;;;13.47;;
10845;SDS011;5476;51.540;7.186;2022-11-20T00:06:28;23.13;;;13.23;;
10845;SDS011;5476;51.540;7.186;2022-11-20T00:08:58;20.13;;;13.67;;
10845;SDS011;5476;51.540;7.186;2022-11-20T00:11:27;20.00;;;12.53;;
10845;SDS011;5476;51.540;7.186;2022-11-20T00:13:55;21.83;;;13.67;;
10845;SDS011;5476;51.540;7.186;2022-11-20T00:16:24;20.93;;;13.07;;
10845;SDS011;5476;51.540;7.186;2022-11-20T00:18:52;19.87;;;13.40;;
10845;SDS011;5476;51.540;7.186;2022-11-20T00:21:20;25.77;;;14.30;;
10845;SDS011;5476;51.540;7.186;2022-11-20T00:23:47;22.47;;;14.93;;
10845;SDS011;5476;51.540;7.186;2022-11-20T00:26:17;21.80;;;14.20;;
10845;SDS011;5476;51.540;7.186;2022-11-20T00:28:48;24.47;;;15.10;;
10845;SDS011;5476;51.540;7.186;2022-11-20T00:31:16;21.57;;;13.87;;
10845;SDS011;5476;51.540;7.186;2022-11-20T00:33:44;21.70;;;13.90;;
10845;SDS011;5476;51.540;7.186;2022-11-20T00:36:12;23.33;;;14.60;;
10845;SDS011;5476;51.540;7.186;2022-11-20T00:38:39;22.20;;;14.60;;
10845;SDS011;5476;51.540;7.186;2022-11-20T00:41:07;21.73;;;14.23;;
10845;SDS011;5476;51.540;7.186;2022-11-20T00:43:36;22.87;;;14.10;;
10845;SDS011;5476;51.540;7.186;2022-11-20T00:46:05;27.17;;;15.30;;
10845;SDS011;5476;51.540;7.186;2022-11-20T00:48:32;22.00;;;13.93;;
10845;SDS011;5476;51.540;7.186;2022-11-20T00:51:00;23.60;;;14.33;;
10845;SDS011;5476;51.540;7.186;2022-11-20T00:53:27;22.10;;;14.87;;
10845;SDS011;5476;51.540;7.186;2022-11-20T00:55:55;20.87;;;13.43;;
10845;SDS011;5476;51.540;7.186;2022-11-20T00:58:23;23.80;;;14.60;;
10845;SDS011;5476;51.540;7.186;2022-11-20T01:00:51;21.23;;;14.43;;
10845;SDS011;5476;51.540;7.186;2022-11-20T01:03:19;22.37;;;14.57;;
10845;SDS011;5476;51.540;7.186;2022-11-20T01:05:46;21.87;;;14.30;;
10845;SDS011;5476;51.540;7.186;2022-11-20T01:08:13;22.03;;;15.00;;
10845;SDS011;5476;51.540;7.186;2022-11-20T01:10:40;22.97;;;15.13;;
10845;SDS011;5476;51.540;7.186;2022-11-20T01:13:07;25.13;;;15.13;;
10845;SDS011;5476;51.540;7.186;2022-11-20T01:15:53;22.60;;;14.63;;
10845;SDS011;5476;51.540;7.186;2022-11-20T01:18:20;24.37;;;14.67;;
10845;SDS011;5476;51.540;7.186;2022-11-20T01:20:48;25.03;;;15.00;;
10845;SDS011;5476;51.540;7.186;2022-11-20T01:23:15;25.70;;;14.77;;
10845;SDS011;5476;51.540;7.186;2022-11-20T01:25:42;23.27;;;15.00;;
10845;SDS011;5476;51.540;7.186;2022-11-20T01:28:09;24.00;;;14.93;;
10845;SDS011;5476;51.540;7.186;2022-11-20T01:30:36;26.87;;;15.43;;
10845;SDS011;5476;51.540;7.186;2022-11-20T01:33:05;22.87;;;14.53;;
10845;SDS011;5476;51.540;7.186;2022-11-20T01:35:33;23.57;;;15.13;;
10845;SDS011;5476;51.540;7.186;2022-11-20T01:38:00;22.23;;;14.33;;
10845;SDS011;5476;51.540;7.186;2022-11-20T01:40:27;26.40;;;14.67;;
10845;SDS011;5476;51.540;7.186;2022-11-20T01:45:58;25.07;;;15.17;;
10845;SDS011;5476;51.540;7.186;2022-11-20T01:48:41;24.30;;;14.97;;
10845;SDS011;5476;51.540;7.186;2022-11-20T01:51:15;24.23;;;14.40;;
10845;SDS011;5476;51.540;7.186;2022-11-20T01:53:46;24.10;;;14.23;;
10845;SDS011;5476;51.540;7.186;2022-11-20T01:56:13;22.87;;;14.97;;
10845;SDS011;5476;51.540;7.186;2022-11-20T01:58:42;24.37;;;14.57;;
10845;SDS011;5476;51.540;7.186;2022-11-20T02:01:13;26.63;;;15.73;;
10845;SDS011;5476;51.540;7.186;2022-11-20T02:03:41;26.13;;;15.43;;
10845;SDS011;5476;51.540;7.186;2022-11-20T02:06:12;25.97;;;15.63;;
10845;SDS011;5476;51.540;7.186;2022-11-20T02:08:45;21.10;;;13.83;;
10845;SDS011;5476;51.540;7.186;2022-11-20T02:11:12;23.47;;;15.67;;
10845;SDS011;5476;51.540;7.186;2022-11-20T02:13:39;20.47;;;14.57;;
10845;SDS011;5476;51.540;7.186;2022-11-20T02:16:10;25.03;;;14.07;;
10845;SDS011;5476;51.540;7.186;2022-11-20T02:18:41;22.60;;;15.03;;
10845;SDS011;5476;51.540;7.186;2022-11-20T02:21:15;25.10;;;15.30;;
10845;SDS011;5476;51.540;7.186;2022-11-20T02:26:40;21.33;;;13.93;;
10845;SDS011;5476;51.540;7.186;2022-11-20T02:29:11;24.43;;;14.53;;
10845;SDS011;5476;51.540;7.186;2022-11-20T02:31:40;21.67;;;13.87;;
10845;SDS011;5476;51.540;7.186;2022-11-20T02:34:08;24.27;;;15.43;;
10845;SDS011;5476;51.540;7.186;2022-11-20T02:36:35;22.90;;;14.60;;
10845;SDS011;5476;51.540;7.186;2022-11-20T02:39:04;22.80;;;14.73;;
10845;SDS011;5476;51.540;7.186;2022-11-20T02:41:33;22.47;;;15.00;;
10845;SDS011;5476;51.540;7.186;2022-11-20T02:44:03;23.73;;;14.00;;
10845;SDS011;5476;51.540;7.186;2022-11-20T02:46:30;24.53;;;14.90;;
10845;SDS011;5476;51.540;7.186;2022-11-20T02:48:58;23.17;;;15.27;;
10845;SDS011;5476;51.540;7.186;2022-11-20T02:51:25;23.30;;;15.07;;
10845;SDS011;5476;51.540;7.186;2022-11-20T02:53:52;21.47;;;14.17;;
10845;SDS011;5476;51.540;7.186;2022-11-20T02:56:20;25.57;;;15.50;;
10845;SDS011;5476;51.540;7.186;2022-11-20T02:58:47;22.27;;;14.27;;
10845;SDS011;5476;51.540;7.186;2022-11-20T03:01:16;22.10;;;14.57;;
10845;SDS011;5476;51.540;7.186;2022-11-20T03:03:43;24.37;;;14.50;;
10845;SDS011;5476;51.540;7.186;2022-11-20T03:06:10;22.53;;;14.63;;
10845;SDS011;5476;51.540;7.186;2022-11-20T03:08:38;20.67;;;13.73;;
10845;SDS011;5476;51.540;7.186;2022-11-20T03:11:05;21.83;;;13.93;;
10845;SDS011;5476;51.540;7.186;2022-11-20T03:13:33;21.37;;;13.70;;
10845;SDS011;5476;51.540;7.186;2022-11-20T03:16:08;23.70;;;14.57;;
10845;SDS011;5476;51.540;7.186;2022-11-20T03:18:39;22.47;;;14.10;;
10845;SDS011;5476;51.540;7.186;2022-11-20T03:21:07;22.90;;;14.40;;
10845;SDS011;5476;51.540;7.186;2022-11-20T03:23:34;19.93;;;13.20;;
10845;SDS011;5476;51.540;7.186;2022-11-20T03:26:12;20.87;;;13.83;;
10845;SDS011;5476;51.540;7.186;2022-11-20T03:28:39;21.40;;;13.93;;
10845;SDS011;5476;51.540;7.186;2022-11-20T03:31:07;24.53;;;14.60;;
10845;SDS011;5476;51.540;7.186;2022-11-20T03:33:35;20.73;;;13.67;;
10845;SDS011;5476;51.540;7.186;2022-11-20T03:36:04;23.93;;;14.00;;
10845;SDS011;5476;51.540;7.186;2022-11-20T03:38:33;25.03;;;15.23;;
10845;SDS011;5476;51.540;7.186;2022-11-20T03:41:04;22.60;;;14.87;;
10845;SDS011;5476;51.540;7.186;2022-11-20T03:43:32;25.47;;;14.37;;
10845;SDS011;5476;51.540;7.186;2022-11-20T03:46:00;22.53;;;13.43;;
10845;SDS011;5476;51.540;7.186;2022-11-20T03:48:27;22.77;;;13.93;;
10845;SDS011;5476;51.540;7.186;2022-11-20T03:51:07;24.17;;;14.20;;
10845;SDS011;5476;51.540;7.186;2022-11-20T03:53:34;24.63;;;14.87;;
10845;SDS011;5476;51.540;7.186;2022-11-20T03:56:01;20.90;;;13.33;;
10845;SDS011;5476;51.540;7.186;2022-11-20T03:58:29;26.70;;;15.27;;
10845;SDS011;5476;51.540;7.186;2022-11-20T04:00:56;22.90;;;14.47;;
10845;SDS011;5476;51.540;7.186;2022-11-20T04:03:23;21.53;;;13.70;;
10845;SDS011;5476;51.540;7.186;2022-11-20T04:05:50;24.33;;;14.47;;
10845;SDS011;5476;51.540;7.186;2022-11-20T04:08:19;23.30;;;15.00;;
10845;SDS011;5476;51.540;7.186;2022-11-20T04:10:46;25.90;;;15.13;;
10845;SDS011;5476;51.540;7.186;2022-11-20T04:13:14;23.97;;;15.07;;
10845;SDS011;5476;51.540;7.186;2022-11-20T04:15:41;26.97;;;15.50;;
10845;SDS011;5476;51.540;7.186;2022-11-20T04:18:08;22.50;;;14.50;;
10845;SDS011;5476;51.540;7.186;2022-11-20T04:20:35;22.70;;;14.87;;
10845;SDS011;5476;51.540;7.186;2022-11-20T04:23:02;25.53;;;14.83;;
10845;SDS011;5476;51.540;7.186;2022-11-20T04:25:31;25.60;;;15.03;;
10845;SDS011;5476;51.540;7.186;2022-11-20T04:27:58;24.23;;;14.67;;
10845;SDS011;5476;51.540;7.186;2022-11-20T04:30:25;23.97;;;14.97;;
10845;SDS011;5476;51.540;7.186;2022-11-20T04:32:53;22.23;;;14.43;;
10845;SDS011;5476;51.540;7.186;2022-11-20T04:35:20;24.27;;;14.80;;
10845;SDS011;5476;51.540;7.186;2022-11-20T04:37:47;23.63;;;14.80;;
10845;SDS011;5476;51.540;7.186;2022-11-20T04:40:14;25.77;;;14.70;;
10845;SDS011;5476;51.540;7.186;2022-11-20T04:42:45;24.33;;;14.80;;
10845;SDS011;5476;51.540;7.186;2022-11-20T04:45:12;23.60;;;14.67;;
10845;SDS011;5476;51.540;7.186;2022-11-20T04:47:39;24.90;;;15.33;;
10845;SDS011;5476;51.540;7.186;2022-11-20T04:50:07;23.03;;;14.63;;
10845;SDS011;5476;51.540;7.186;2022-11-20T04:52:34;22.03;;;14.40;;
10845;SDS011;5476;51.540;7.186;2022-11-20T04:55:02;25.63;;;15.40;;
10845;SDS011;5476;51.540;7.186;2022-11-20T04:57:29;21.27;;;14.37;;
10845;SDS011;5476;51.540;7.186;2022-11-20T04:59:57;21.87;;;14.27;;
10845;SDS011;5476;51.540;7.186;2022-11-20T05:02:24;21.77;;;14.43;;
10845;SDS011;5476;51.540;7.186;2022-11-20T05:04:52;24.00;;;14.77;;
10845;SDS011;5476;51.540;7.186;2022-11-20T05:07:19;26.27;;;15.67;;
10845;SDS011;5476;51.540;7.186;2022-11-20T05:09:46;23.77;;;14.63;;
10845;SDS011;5476;51.540;7.186;2022-11-20T05:12:13;25.27;;;15.20;;
10845;SDS011;5476;51.540;7.186;2022-11-20T05:14:41;23.97;;;15.03;;
10845;SDS011;5476;51.540;7.186;2022-11-20T05:17:11;23.27;;;15.03;;
10845;SDS011;5476;51.540;7.186;2022-11-20T05:19:38;26.30;;;15.00;;
10845;SDS011;5476;51.540;7.186;2022-11-20T05:22:05;23.83;;;14.70;;
10845;SDS011;5476;51.540;7.186;2022-11-20T05:24:32;24.37;;;14.83;;
10845;SDS011;5476;51.540;7.186;2022-11-20T05:27:02;23.13;;;14.70;;
10845;SDS011;5476;51.540;7.186;2022-11-20T05:29:29;22.00;;;14.37;;
10845;SDS011;5476;51.540;7.186;2022-11-20T05:31:56;23.20;;;15.13;;
10845;SDS011;5476;51.540;7.186;2022-11-20T05:34:25;22.33;;;14.80;;
10845;SDS011;5476;51.540;7.186;2022-11-20T05:36:51;24.80;;;15.20;;
10845;SDS011;5476;51.540;7.186;2022-11-20T05:39:19;24.13;;;15.13;;
10845;SDS011;5476;51.540;7.186;2022-11-20T05:41:46;23.23;;;15.57;;
10845;SDS011;5476;51.540;7.186;2022-11-20T05:44:33;25.53;;;16.60;;
10845;SDS011;5476;51.540;7.186;2022-11-20T05:47:00;26.60;;;15.87;;
10845;SDS011;5476;51.540;7.186;2022-11-20T05:49:29;23.47;;;15.70;;
10845;SDS011;5476;51.540;7.186;2022-11-20T05:51:56;22.93;;;16.00;;
10845;SDS011;5476;51.540;7.186;2022-11-20T05:54:24;25.40;;;16.20;;
10845;SDS011;5476;51.540;7.186;2022-11-20T05:56:51;25.37;;;16.50;;
10845;SDS011;5476;51.540;7.186;2022-11-20T05:59:18;25.60;;;17.17;;
10845;SDS011;5476;51.540;7.186;2022-11-20T06:01:45;25.20;;;15.97;;
10845;SDS011;5476;51.540;7.186;2022-11-20T06:04:12;24.87;;;15.60;;
10845;SDS011;5476;51.540;7.186;2022-11-20T06:06:41;26.37;;;15.63;;
10845;SDS011;5476;51.540;7.186;2022-11-20T06:09:08;23.57;;;14.77;;
10845;SDS011;5476;51.540;7.186;2022-11-20T06:11:35;25.43;;;15.87;;
10845;SDS011;5476;51.540;7.186;2022-11-20T06:14:03;23.93;;;15.50;;
10845;SDS011;5476;51.540;7.186;2022-11-20T06:16:30;26.10;;;15.17;;
10845;SDS011;5476;51.540;7.186;2022-11-20T06:18:57;26.17;;;14.93;;
10845;SDS011;5476;51.540;7.186;2022-11-20T06:21:24;24.23;;;16.03;;
10845;SDS011;5476;51.540;7.186;2022-11-20T06:23:53;25.77;;;16.33;;
10845;SDS011;5476;51.540;7.186;2022-11-20T06:26:21;22.80;;;15.50;;
10845;SDS011;5476;51.540;7.186;2022-11-20T06:28:49;25.17;;;16.17;;
10845;SDS011;5476;51.540;7.186;2022-11-20T06:31:17;26.10;;;15.43;;
10845;SDS011;5476;51.540;7.186;2022-11-20T06:33:45;25.57;;;15.43;;
10845;SDS011;5476;51.540;7.186;2022-11-20T06:36:13;23.87;;;15.47;;
10845;SDS011;5476;51.540;7.186;2022-11-20T06:38:41;25.03;;;15.33;;
10845;SDS011;5476;51.540;7.186;2022-11-20T06:41:11;21.83;;;14.80;;
10845;SDS011;5476;51.540;7.186;2022-11-20T06:43:39;23.37;;;14.73;;
10845;SDS011;5476;51.540;7.186;2022-11-20T06:46:08;26.57;;;14.87;;
10845;SDS011;5476;51.540;7.186;2022-11-20T06:48:36;23.27;;;15.67;;
10845;SDS011;5476;51.540;7.186;2022-11-20T06:51:04;23.13;;;15.37;;
10845;SDS011;5476;51.540;7.186;2022-11-20T06:53:31;23.07;;;15.10;;
10845;SDS011;5476;51.540;7.186;2022-11-20T06:55:58;21.90;;;14.07;;
10845;SDS011;5476;51.540;7.186;2022-11-20T06:58:27;23.83;;;15.07;;
10845;SDS011;5476;51.540;7.186;2022-11-20T07:00:57;22.47;;;15.10;;
10845;SDS011;5476;51.540;7.186;2022-11-20T07:03:25;25.30;;;14.67;;
10845;SDS011;5476;51.540;7.186;2022-11-20T07:05:53;27.93;;;16.20;;
10845;SDS011;5476;51.540;7.186;2022-11-20T07:08:21;25.07;;;15.77;;
10845;SDS011;5476;51.540;7.186;2022-11-20T07:10:48;26.83;;;15.33;;
10845;SDS011;5476;51.540;7.186;2022-11-20T07:13:16;22.60;;;15.07;;
10845;SDS011;5476;51.540;7.186;2022-11-20T07:15:44;24.40;;;15.63;;
10845;SDS011;5476;51.540;7.186;2022-11-20T07:18:12;25.87;;;17.83;;
10845;SDS011;5476;51.540;7.186;2022-11-20T07:20:40;25.93;;;16.53;;
10845;SDS011;5476;51.540;7.186;2022-11-20T07:23:07;27.60;;;15.53;;
10845;SDS011;5476;51.540;7.186;2022-11-20T07:25:34;24.33;;;15.17;;
10845;SDS011;5476;51.540;7.186;2022-11-20T07:28:01;28.13;;;16.47;;
10845;SDS011;5476;51.540;7.186;2022-11-20T07:30:29;25.27;;;15.83;;
10845;SDS011;5476;51.540;7.186;2022-11-20T07:32:58;28.07;;;18.47;;
10845;SDS011;5476;51.540;7.186;2022-11-20T07:35:25;28.80;;;17.93;;
10845;SDS011;5476;51.540;7.186;2022-11-20T07:37:53;27.00;;;16.30;;
10845;SDS011;5476;51.540;7.186;2022-11-20T07:40:20;25.37;;;15.87;;
10845;SDS011;5476;51.540;7.186;2022-11-20T07:42:48;24.93;;;14.90;;
10845;SDS011;5476;51.540;7.186;2022-11-20T07:45:15;22.00;;;14.97;;
10845;SDS011;5476;51.540;7.186;2022-11-20T07:47:43;25.10;;;15.80;;
10845;SDS011;5476;51.540;7.186;2022-11-20T07:50:12;22.53;;;14.23;;
10845;SDS011;5476;51.540;7.186;2022-11-20T07:52:40;24.33;;;15.07;;
10845;SDS011;5476;51.540;7.186;2022-11-20T07:55:08;23.37;;;14.30;;
10845;SDS011;5476;51.540;7.186;2022-11-20T07:57:35;24.73;;;14.50;;
10845;SDS011;5476;51.540;7.186;2022-11-20T08:00:03;24.97;;;14.90;;
10845;SDS011;5476;51.540;7.186;2022-11-20T08:02:30;22.23;;;14.13;;
10845;SDS011;5476;51.540;7.186;2022-11-20T08:04:57;27.53;;;17.37;;
10845;SDS011;5476;51.540;7.186;2022-11-20T08:07:28;23.97;;;16.50;;
10845;SDS011;5476;51.540;7.186;2022-11-20T08:09:55;29.10;;;17.57;;
10845;SDS011;5476;51.540;7.186;2022-11-20T08:12:22;33.03;;;19.20;;
10845;SDS011;5476;51.540;7.186;2022-11-20T08:15:08;29.23;;;17.23;;
10845;SDS011;5476;51.540;7.186;2022-11-20T08:17:38;26.30;;;16.80;;
10845;SDS011;5476;51.540;7.186;2022-11-20T08:20:05;26.47;;;17.20;;
10845;SDS011;5476;51.540;7.186;2022-11-20T08:22:35;24.50;;;16.73;;
10845;SDS011;5476;51.540;7.186;2022-11-20T08:25:05;27.00;;;18.00;;
10845;SDS011;5476;51.540;7.186;2022-11-20T08:27:32;28.67;;;18.73;;
10845;SDS011;5476;51.540;7.186;2022-11-20T08:30:00;28.03;;;17.90;;
10845;SDS011;5476;51.540;7.186;2022-11-20T08:32:27;28.20;;;18.20;;
10845;SDS011;5476;51.540;7.186;2022-11-20T08:34:54;28.67;;;19.33;;
10845;SDS011;5476;51.540;7.186;2022-11-20T08:37:21;34.27;;;21.90;;
10845;SDS011;5476;51.540;7.186;2022-11-20T08:39:50;36.87;;;21.30;;
10845;SDS011;5476;51.540;7.186;2022-11-20T08:42:18;33.93;;;21.30;;
10845;SDS011;5476;51.540;7.186;2022-11-20T08:44:45;28.73;;;19.60;;
10845;SDS011;5476;51.540;7.186;2022-11-20T08:47:13;31.93;;;19.53;;
10845;SDS011;5476;51.540;7.186;2022-11-20T08:49:40;27.60;;;18.87;;
10845;SDS011;5476;51.540;7.186;2022-11-20T08:52:07;28.83;;;17.20;;
10845;SDS011;5476;51.540;7.186;2022-11-20T08:54:35;26.30;;;18.47;;
10845;SDS011;5476;51.540;7.186;2022-11-20T08:57:03;25.47;;;16.43;;
10845;SDS011;5476;51.540;7.186;2022-11-20T08:59:30;22.23;;;15.60;;
10845;SDS011;5476;51.540;7.186;2022-11-20T09:01:58;24.47;;;16.60;;
10845;SDS011;5476;51.540;7.186;2022-11-20T09:04:25;20.23;;;15.87;;
10845;SDS011;5476;51.540;7.186;2022-11-20T09:06:52;22.07;;;15.87;;
10845;SDS011;5476;51.540;7.186;2022-11-20T09:09:19;22.70;;;15.50;;
10845;SDS011;5476;51.540;7.186;2022-11-20T09:11:46;20.30;;;14.87;;
10845;SDS011;5476;51.540;7.186;2022-11-20T09:14:16;22.13;;;16.17;;
10845;SDS011;5476;51.540;7.186;2022-11-20T09:16:44;19.57;;;15.13;;
10845;SDS011;5476;51.540;7.186;2022-11-20T09:19:11;22.40;;;16.90;;
10845;SDS011;5476;51.540;7.186;2022-11-20T09:21:39;20.50;;;16.90;;
10845;SDS011;5476;51.540;7.186;2022-11-20T09:24:07;18.50;;;16.17;;
10845;SDS011;5476;51.540;7.186;2022-11-20T09:26:35;23.27;;;17.17;;
10845;SDS011;5476;51.540;7.186;2022-11-20T09:29:03;21.97;;;16.67;;
10845;SDS011;5476;51.540;7.186;2022-11-20T09:31:32;22.30;;;17.13;;
10845;SDS011;5476;51.540;7.186;2022-11-20T09:33:59;22.63;;;17.97;;
10845;SDS011;5476;51.540;7.186;2022-11-20T09:36:28;24.43;;;19.57;;
10845;SDS011;5476;51.540;7.186;2022-11-20T09:38:55;22.53;;;18.37;;
10845;SDS011;5476;51.540;7.186;2022-11-20T09:41:29;26.40;;;19.70;;
10845;SDS011;5476;51.540;7.186;2022-11-20T09:44:13;23.07;;;18.80;;
10845;SDS011;5476;51.540;7.186;2022-11-20T09:46:58;23.37;;;19.63;;
10845;SDS011;5476;51.540;7.186;2022-11-20T09:49:36;24.77;;;19.40;;
10845;SDS011;5476;51.540;7.186;2022-11-20T09:52:18;21.83;;;18.53;;
10845;SDS011;5476;51.540;7.186;2022-11-20T09:54:55;23.20;;;18.80;;
10845;SDS011;5476;51.540;7.186;2022-11-20T09:57:23;25.57;;;18.80;;
10845;SDS011;5476;51.540;7.186;2022-11-20T10:00:14;25.07;;;18.87;;
10845;SDS011;5476;51.540;7.186;2022-11-20T10:03:29;25.47;;;18.43;;
10845;SDS011;5476;51.540;7.186;2022-11-20T10:06:04;24.37;;;19.97;;
10845;SDS011;5476;51.540;7.186;2022-11-20T10:08:39;23.90;;;19.03;;
10845;SDS011;5476;51.540;7.186;2022-11-20T10:11:13;26.70;;;19.97;;
10845;SDS011;5476;51.540;7.186;2022-11-20T10:13:50;26.53;;;18.80;;
10845;SDS011;5476;51.540;7.186;2022-11-20T10:16:30;24.17;;;18.33;;
10845;SDS011;5476;51.540;7.186;2022-11-20T10:19:10;20.50;;;14.87;;
10845;SDS011;5476;51.540;7.186;2022-11-20T10:21:53;20.53;;;15.70;;
10845;SDS011;5476;51.540;7.186;2022-11-20T10:24:35;22.77;;;17.07;;
10845;SDS011;5476;51.540;7.186;2022-11-20T10:27:32;24.83;;;16.17;;
10845;SDS011;5476;51.540;7.186;2022-11-20T10:30:25;18.60;;;14.60;;
10845;SDS011;5476;51.540;7.186;2022-11-20T10:33:00;21.63;;;15.17;;
10845;SDS011;5476;51.540;7.186;2022-11-20T10:35:35;21.47;;;14.37;;
10845;SDS011;5476;51.540;7.186;2022-11-20T10:38:06;20.83;;;13.83;;
10845;SDS011;5476;51.540;7.186;2022-11-20T10:40:38;17.47;;;12.60;;
10845;SDS011;5476;51.540;7.186;2022-11-20T10:43:10;21.73;;;13.90;;
10845;SDS011;5476;51.540;7.186;2022-11-20T10:45:43;14.90;;;11.20;;
10845;SDS011;5476;51.540;7.186;2022-11-20T10:48:16;15.47;;;11.47;;
10845;SDS011;5476;51.540;7.186;2022-11-20T10:50:52;18.30;;;12.67;;
10845;SDS011;5476;51.540;7.186;2022-11-20T10:53:30;17.93;;;12.43;;
10845;SDS011;5476;51.540;7.186;2022-11-20T10:56:07;16.67;;;11.50;;
10845;SDS011;5476;51.540;7.186;2022-11-20T10:58:43;16.07;;;12.33;;
10845;SDS011;5476;51.540;7.186;2022-11-20T11:01:20;17.40;;;12.03;;
10845;SDS011;5476;51.540;7.186;2022-11-20T11:03:48;16.97;;;12.20;;
10845;SDS011;5476;51.540;7.186;2022-11-20T11:06:19;17.93;;;12.33;;
10845;SDS011;5476;51.540;7.186;2022-11-20T11:08:53;20.27;;;13.50;;
10845;SDS011;5476;51.540;7.186;2022-11-20T11:11:23;21.67;;;15.20;;
10845;SDS011;5476;51.540;7.186;2022-11-20T11:13:52;18.97;;;13.27;;
10845;SDS011;5476;51.540;7.186;2022-11-20T11:16:20;19.57;;;13.87;;
10845;SDS011;5476;51.540;7.186;2022-11-20T11:18:48;19.87;;;13.57;;
10845;SDS011;5476;51.540;7.186;2022-11-20T11:21:22;19.87;;;14.97;;
10845;SDS011;5476;51.540;7.186;2022-11-20T11:24:01;18.73;;;13.57;;
10845;SDS011;5476;51.540;7.186;2022-11-20T11:26:29;20.23;;;13.53;;
10845;SDS011;5476;51.540;7.186;2022-11-20T11:28:58;16.70;;;12.60;;
10845;SDS011;5476;51.540;7.186;2022-11-20T11:31:26;18.83;;;13.43;;
10845;SDS011;5476;51.540;7.186;2022-11-20T11:34:03;20.47;;;14.77;;
10845;SDS011;5476;51.540;7.186;2022-11-20T11:36:33;20.00;;;13.67;;
10845;SDS011;5476;51.540;7.186;2022-11-20T11:39:02;21.40;;;14.43;;
10845;SDS011;5476;51.540;7.186;2022-11-20T11:41:32;17.87;;;13.57;;
10845;SDS011;5476;51.540;7.186;2022-11-20T11:44:03;18.93;;;13.33;;
10845;SDS011;5476;51.540;7.186;2022-11-20T11:47:00;18.70;;;13.83;;
10845;SDS011;5476;51.540;7.186;2022-11-20T11:49:27;18.73;;;13.30;;
10845;SDS011;5476;51.540;7.186;2022-11-20T11:51:59;20.23;;;14.20;;
10845;SDS011;5476;51.540;7.186;2022-11-20T11:54:32;16.17;;;11.03;;
10845;SDS011;5476;51.540;7.186;2022-11-20T11:57:07;19.63;;;12.10;;
10845;SDS011;5476;51.540;7.186;2022-11-20T11:59:46;15.17;;;10.30;;
10845;SDS011;5476;51.540;7.186;2022-11-20T12:02:27;16.50;;;10.40;;
10845;SDS011;5476;51.540;7.186;2022-11-20T12:05:02;14.83;;;9.90;;
10845;SDS011;5476;51.540;7.186;2022-11-20T12:07:41;15.83;;;9.40;;
10845;SDS011;5476;51.540;7.186;2022-11-20T12:10:14;13.70;;;9.03;;
10845;SDS011;5476;51.540;7.186;2022-11-20T12:12:46;12.80;;;9.33;;
10845;SDS011;5476;51.540;7.186;2022-11-20T12:15:22;12.50;;;9.57;;
10845;SDS011;5476;51.540;7.186;2022-11-20T12:17:54;14.03;;;9.60;;
10845;SDS011;5476;51.540;7.186;2022-11-20T12:20:22;12.40;;;8.50;;
10845;SDS011;5476;51.540;7.186;2022-11-20T12:22:55;14.37;;;9.70;;
10845;SDS011;5476;51.540;7.186;2022-11-20T12:25:27;16.40;;;10.57;;
10845;SDS011;5476;51.540;7.186;2022-11-20T12:30:50;15.33;;;10.30;;
10845;SDS011;5476;51.540;7.186;2022-11-20T12:36:27;14.47;;;9.63;;
10845;SDS011;5476;51.540;7.186;2022-11-20T12:39:07;14.80;;;9.50;;
10845;SDS011;5476;51.540;7.186;2022-11-20T12:41:51;14.03;;;9.60;;
10845;SDS011;5476;51.540;7.186;2022-11-20T12:44:59;14.20;;;9.83;;
10845;SDS011;5476;51.540;7.186;2022-11-20T12:47:39;14.40;;;9.33;;
10845;SDS011;5476;51.540;7.186;2022-11-20T12:50:19;16.50;;;10.57;;
10845;SDS011;5476;51.540;7.186;2022-11-20T12:52:58;12.93;;;8.70;;
10845;SDS011;5476;51.540;7.186;2022-11-20T12:55:35;15.73;;;10.17;;
10845;SDS011;5476;51.540;7.186;2022-11-20T12:58:10;14.63;;;10.83;;
10845;SDS011;5476;51.540;7.186;2022-11-20T13:00:48;16.70;;;10.20;;
10845;SDS011;5476;51.540;7.186;2022-11-20T13:06:15;18.60;;;11.13;;
10845;SDS011;5476;51.540;7.186;2022-11-20T13:08:45;17.20;;;11.73;;
10845;SDS011;5476;51.540;7.186;2022-11-20T13:11:20;17.23;;;11.53;;
10845;SDS011;5476;51.540;7.186;2022-11-20T13:14:00;19.30;;;12.43;;
10845;SDS011;5476;51.540;7.186;2022-11-20T13:16:41;17.73;;;12.60;;
10845;SDS011;5476;51.540;7.186;2022-11-20T13:19:15;18.83;;;12.10;;
10845;SDS011;5476;51.540;7.186;2022-11-20T13:21:44;18.93;;;12.57;;
10845;SDS011;5476;51.540;7.186;2022-11-20T13:24:21;21.23;;;12.83;;
10845;SDS011;5476;51.540;7.186;2022-11-20T13:27:02;18.67;;;12.37;;
10845;SDS011;5476;51.540;7.186;2022-11-20T13:29:31;19.10;;;11.80;;
10845;SDS011;5476;51.540;7.186;2022-11-20T13:32:03;16.80;;;11.53;;
10845;SDS011;5476;51.540;7.186;2022-11-20T13:34:32;17.63;;;11.23;;
10845;SDS011;5476;51.540;7.186;2022-11-20T13:37:00;19.40;;;12.47;;
10845;SDS011;5476;51.540;7.186;2022-11-20T13:39:29;16.73;;;11.57;;
10845;SDS011;5476;51.540;7.186;2022-11-20T13:41:58;18.80;;;12.23;;
10845;SDS011;5476;51.540;7.186;2022-11-20T13:44:29;16.63;;;11.47;;
10845;SDS011;5476;51.540;7.186;2022-11-20T13:47:00;17.03;;;11.47;;
10845;SDS011;5476;51.540;7.186;2022-11-20T13:49:29;17.03;;;11.73;;
10845;SDS011;5476;51.540;7.186;2022-11-20T13:52:05;16.63;;;11.63;;
10845;SDS011;5476;51.540;7.186;2022-11-20T13:54:58;16.23;;;11.03;;
10845;SDS011;5476;51.540;7.186;2022-11-20T13:57:46;16.93;;;11.63;;
10845;SDS011;5476;51.540;7.186;2022-11-20T14:00:41;20.17;;;13.97;;
10845;SDS011;5476;51.540;7.186;2022-11-20T14:03:13;17.63;;;12.23;;
10845;SDS011;5476;51.540;7.186;2022-11-20T14:05:49;17.83;;;12.57;;
10845;SDS011;5476;51.540;7.186;2022-11-20T14:08:26;18.07;;;12.37;;
10845;SDS011;5476;51.540;7.186;2022-11-20T14:11:05;19.87;;;13.00;;
10845;SDS011;5476;51.540;7.186;2022-11-20T14:13:32;20.40;;;12.03;;
10845;SDS011;5476;51.540;7.186;2022-11-20T14:16:00;17.97;;;11.57;;
10845;SDS011;5476;51.540;7.186;2022-11-20T14:18:27;17.17;;;11.37;;
10845;SDS011;5476;51.540;7.186;2022-11-20T14:20:54;18.00;;;11.20;;
10845;SDS011;5476;51.540;7.186;2022-11-20T14:23:25;18.97;;;11.93;;
10845;SDS011;5476;51.540;7.186;2022-11-20T14:25:53;18.73;;;12.33;;
10845;SDS011;5476;51.540;7.186;2022-11-20T14:28:25;23.40;;;13.20;;
10845;SDS011;5476;51.540;7.186;2022-11-20T14:30:53;17.90;;;11.07;;
10845;SDS011;5476;51.540;7.186;2022-11-20T14:33:22;21.13;;;13.13;;
10845;SDS011;5476;51.540;7.186;2022-11-20T14:35:51;18.27;;;11.60;;
10845;SDS011;5476;51.540;7.186;2022-11-20T14:38:22;18.97;;;12.10;;
10845;SDS011;5476;51.540;7.186;2022-11-20T14:40:51;18.97;;;12.60;;
10845;SDS011;5476;51.540;7.186;2022-11-20T14:43:20;17.77;;;12.50;;
10845;SDS011;5476;51.540;7.186;2022-11-20T14:45:51;19.20;;;12.57;;
10845;SDS011;5476;51.540;7.186;2022-11-20T14:48:25;19.17;;;13.43;;
10845;SDS011;5476;51.540;7.186;2022-11-20T14:50:56;20.60;;;13.47;;
10845;SDS011;5476;51.540;7.186;2022-11-20T14:53:24;21.23;;;14.40;;
10845;SDS011;5476;51.540;7.186;2022-11-20T14:55:55;21.80;;;13.83;;
10845;SDS011;5476;51.540;7.186;2022-11-20T14:58:24;22.37;;;13.80;;
10845;SDS011;5476;51.540;7.186;2022-11-20T15:00:56;23.03;;;14.13;;
10845;SDS011;5476;51.540;7.186;2022-11-20T15:03:30;21.13;;;13.30;;
10845;SDS011;5476;51.540;7.186;2022-11-20T15:05:57;22.17;;;13.77;;
10845;SDS011;5476;51.540;7.186;2022-11-20T15:08:24;21.77;;;14.30;;
10845;SDS011;5476;51.540;7.186;2022-11-20T15:10:51;22.43;;;14.80;;